Time;durP1;ratioP1;P1;durP2;ratioP2;P2;SDS_P1;SDS_P2;PMS_P1;PMS_P2;Temp;Humidity;BMP_temperature;BMP_pressure;BME280_temperature;BME280_humidity;BME280_pressure;Samples;Min_cycle;Max_cycle;Signal;HPM_P1;HPM_P2
2023/09/26 00:00:29;;;;;;;7.68;3.97;;;;;;;;;;7367815;19;20386;-68
2023/09/26 00:02:55;;;;;;;7.60;3.97;;;;;;;;;;7366123;19;20006;-68
2023/09/26 00:05:22;;;;;;;7.28;4.10;;;;;;;;;;7367069;19;20667;-68
2023/09/26 00:07:49;;;;;;;6.97;4.03;;;;;;;;;;7388870;19;20023;-68
2023/09/26 00:10:14;;;;;;;7.43;3.90;;;;;;;;;;7366483;19;20027;-67
2023/09/26 00:12:40;;;;;;;9.50;4.10;;;;;;;;;;7365078;19;20007;-68
2023/09/26 00:15:07;;;;;;;6.30;3.50;;;;;;;;;;7367627;19;20010;-68
2023/09/26 00:17:33;;;;;;;7.40;4.05;;;;;;;;;;7366842;19;20014;-68
2023/09/26 00:19:58;;;;;;;7.13;4.15;;;;;;;;;;7388831;19;20363;-71
2023/09/26 00:22:24;;;;;;;7.88;4.10;;;;;;;;;;7365316;19;20006;-68
2023/09/26 00:24:51;;;;;;;6.40;3.85;;;;;;;;;;7367404;19;20006;-67
2023/09/26 00:27:17;;;;;;;6.10;3.78;;;;;;;;;;7366816;19;20019;-67
2023/09/26 00:29:44;;;;;;;6.95;4.20;;;;;;;;;;7366449;19;20014;-67
2023/09/26 00:32:09;;;;;;;7.80;3.95;;;;;;;;;;7387975;19;20359;-68
2023/09/26 00:34:35;;;;;;;7.00;3.95;;;;;;;;;;7366480;19;20010;-68
2023/09/26 00:37:00;;;;;;;12.15;4.63;;;;;;;;;;7367002;19;20010;-68
2023/09/26 00:39:25;;;;;;;8.43;3.92;;;;;;;;;;7367268;19;20086;-68
2023/09/26 00:41:51;;;;;;;7.82;4.20;;;;;;;;;;7365708;19;20009;-68
2023/09/26 00:44:16;;;;;;;8.00;4.38;;;;;;;;;;7387763;19;20062;-69
2023/09/26 00:46:41;;;;;;;6.25;3.92;;;;;;;;;;7367071;19;20045;-68
2023/09/26 00:49:08;;;;;;;7.70;4.13;;;;;;;;;;7366266;19;20031;-68
2023/09/26 00:51:34;;;;;;;7.10;4.50;;;;;;;;;;7367224;19;20076;-68
2023/09/26 00:54:00;;;;;;;8.73;4.22;;;;;;;;;;7366890;19;20046;-68
2023/09/26 00:56:26;;;;;;;7.43;4.05;;;;;;;;;;7366588;19;20022;-68
2023/09/26 00:58:51;;;;;;;7.90;4.03;;;;;;;;;;7387584;19;19991;-66
2023/09/26 01:01:20;;;;;;;7.55;3.42;;;;;;;;;;7365982;19;20034;-66
2023/09/26 01:03:45;;;;;;;6.28;3.60;;;;;;;;;;7363659;19;20043;-70
2023/09/26 01:06:11;;;;;;;8.05;3.83;;;;;;;;;;7364908;19;20464;-68
2023/09/26 01:08:37;;;;;;;6.97;3.97;;;;;;;;;;7364618;19;20423;-68
2023/09/26 01:11:03;;;;;;;7.90;4.05;;;;;;;;;;7385857;19;20003;-68
2023/09/26 01:13:28;;;;;;;9.95;3.85;;;;;;;;;;7363313;19;20472;-68
2023/09/26 01:15:53;;;;;;;6.70;3.78;;;;;;;;;;7365492;19;20018;-68
2023/09/26 01:18:23;;;;;;;9.43;3.92;;;;;;;;;;7364371;19;20026;-69
2023/09/26 01:20:49;;;;;;;6.88;4.03;;;;;;;;;;7364496;19;20007;-68
2023/09/26 01:23:15;;;;;;;7.50;3.90;;;;;;;;;;7382281;19;20010;-67
2023/09/26 01:25:42;;;;;;;6.80;4.25;;;;;;;;;;7362870;19;20019;-68
2023/09/26 01:28:08;;;;;;;6.80;3.92;;;;;;;;;;7360764;19;20343;-67
2023/09/26 01:30:35;;;;;;;11.15;4.40;;;;;;;;;;7363782;19;20021;-68
2023/09/26 01:33:02;;;;;;;6.03;3.80;;;;;;;;;;7368005;19;20007;-68
2023/09/26 01:35:27;;;;;;;7.63;3.90;;;;;;;;;;7370177;19;20010;-68
2023/09/26 01:37:53;;;;;;;6.25;3.90;;;;;;;;;;7393534;19;20413;-68
2023/09/26 01:40:18;;;;;;;9.65;4.15;;;;;;;;;;7371839;19;20014;-68
2023/09/26 01:42:44;;;;;;;6.93;4.03;;;;;;;;;;7367526;19;20014;-69
2023/09/26 01:45:10;;;;;;;7.45;4.60;;;;;;;;;;7372586;19;20086;-67
2023/09/26 01:47:55;;;;;;;6.78;4.32;;;;;;;;;;7372193;19;20015;-67
2023/09/26 01:50:21;;;;;;;6.55;3.70;;;;;;;;;;7371589;19;20002;-68
2023/09/26 01:52:47;;;;;;;8.82;4.30;;;;;;;;;;7393455;19;20003;-68
2023/09/26 01:55:16;;;;;;;7.30;4.50;;;;;;;;;;7372445;19;20523;-68
2023/09/26 01:57:42;;;;;;;8.05;4.15;;;;;;;;;;7371563;19;20410;-67
2023/09/26 02:00:11;;;;;;;7.40;4.07;;;;;;;;;;7372159;19;20007;-67
2023/09/26 02:02:55;;;;;;;7.05;3.72;;;;;;;;;;7370749;19;20078;-67
2023/09/26 02:05:21;;;;;;;5.97;3.88;;;;;;;;;;7371944;19;20003;-68
2023/09/26 02:07:48;;;;;;;8.30;4.30;;;;;;;;;;7393561;19;20010;-67
2023/09/26 02:10:14;;;;;;;7.28;4.28;;;;;;;;;;7369909;19;20002;-68
2023/09/26 02:12:42;;;;;;;9.23;4.90;;;;;;;;;;7369095;19;20072;-68
2023/09/26 02:15:08;;;;;;;7.07;4.07;;;;;;;;;;7372621;19;20015;-68
2023/09/26 02:17:36;;;;;;;9.45;4.50;;;;;;;;;;7371442;19;20689;-68
2023/09/26 02:20:12;;;;;;;6.45;4.32;;;;;;;;;;7393394;19;20013;-68
2023/09/26 02:22:42;;;;;;;6.35;3.85;;;;;;;;;;7368279;19;20021;-68
2023/09/26 02:25:11;;;;;;;7.93;4.70;;;;;;;;;;7371919;19;20743;-68
2023/09/26 02:27:38;;;;;;;6.75;4.20;;;;;;;;;;7371272;19;20027;-68
2023/09/26 02:30:05;;;;;;;6.90;4.32;;;;;;;;;;7370687;19;20010;-68
2023/09/26 02:32:32;;;;;;;6.30;4.18;;;;;;;;;;7368885;19;20003;-69
2023/09/26 02:34:57;;;;;;;9.30;4.22;;;;;;;;;;7392135;19;20002;-67
2023/09/26 02:37:23;;;;;;;7.03;4.20;;;;;;;;;;7369955;19;20025;-67
2023/09/26 02:39:48;;;;;;;6.43;3.97;;;;;;;;;;7370617;19;20010;-68
2023/09/26 02:42:13;;;;;;;6.55;4.00;;;;;;;;;;7365428;19;20014;-67
2023/09/26 02:44:39;;;;;;;6.10;3.88;;;;;;;;;;7369894;19;20014;-67
2023/09/26 02:47:04;;;;;;;7.03;3.80;;;;;;;;;;7392158;19;19998;-68
2023/09/26 02:49:30;;;;;;;10.50;4.35;;;;;;;;;;7368484;19;20026;-68
2023/09/26 02:51:55;;;;;;;9.23;4.25;;;;;;;;;;7368838;19;20006;-68
2023/09/26 02:54:20;;;;;;;8.15;4.10;;;;;;;;;;7369497;19;20014;-66
2023/09/26 02:56:46;;;;;;;7.05;4.38;;;;;;;;;;7368976;19;20014;-68
2023/09/26 02:59:11;;;;;;;7.53;3.97;;;;;;;;;;7391132;19;20006;-68
2023/09/26 03:01:36;;;;;;;9.20;4.50;;;;;;;;;;7369290;19;20006;-67
2023/09/26 03:04:02;;;;;;;7.45;4.15;;;;;;;;;;7367660;19;20034;-67
2023/09/26 03:06:27;;;;;;;9.23;4.43;;;;;;;;;;7369519;19;20006;-68
2023/09/26 03:08:52;;;;;;;7.68;4.25;;;;;;;;;;7369889;19;20006;-68
2023/09/26 03:11:18;;;;;;;7.03;3.85;;;;;;;;;;7376352;19;20722;-67
2023/09/26 03:13:43;;;;;;;7.25;4.38;;;;;;;;;;7384211;19;20347;-68
2023/09/26 03:16:13;;;;;;;9.98;4.28;;;;;;;;;;7369017;19;20720;-68
2023/09/26 03:18:38;;;;;;;6.88;4.10;;;;;;;;;;7368747;19;20014;-68
2023/09/26 03:21:05;;;;;;;6.00;4.20;;;;;;;;;;7368963;19;20006;-68
2023/09/26 03:23:31;;;;;;;8.43;4.13;;;;;;;;;;7365993;19;20020;-68
2023/09/26 03:25:56;;;;;;;6.70;4.40;;;;;;;;;;7390881;19;20010;-68
2023/09/26 03:28:21;;;;;;;7.25;4.20;;;;;;;;;;7368263;19;19999;-68
2023/09/26 03:30:47;;;;;;;7.07;4.40;;;;;;;;;;7368902;19;20571;-68
2023/09/26 03:33:12;;;;;;;7.68;4.20;;;;;;;;;;7367033;19;20026;-69
2023/09/26 03:35:37;;;;;;;7.20;4.07;;;;;;;;;;7368920;19;20063;-68
2023/09/26 03:38:03;;;;;;;6.75;4.35;;;;;;;;;;7390218;19;20053;-68
2023/09/26 03:40:28;;;;;;;6.40;4.03;;;;;;;;;;7368195;19;20105;-66
2023/09/26 03:42:54;;;;;;;8.57;4.07;;;;;;;;;;7366453;19;20006;-68
2023/09/26 03:45:20;;;;;;;7.95;4.15;;;;;;;;;;7369061;19;20010;-68
2023/09/26 03:47:46;;;;;;;6.00;3.83;;;;;;;;;;7367453;19;20003;-68
2023/09/26 03:50:11;;;;;;;8.02;4.57;;;;;;;;;;7388952;19;19995;-67
2023/09/26 03:52:36;;;;;;;7.90;4.18;;;;;;;;;;7367496;19;20006;-68
2023/09/26 03:55:02;;;;;;;7.43;3.72;;;;;;;;;;7368858;19;20121;-67
2023/09/26 03:57:30;;;;;;;8.23;4.00;;;;;;;;;;7368327;19;20014;-67
2023/09/26 03:59:56;;;;;;;7.82;3.97;;;;;;;;;;7369781;19;20036;-68
2023/09/26 04:02:21;;;;;;;7.43;4.35;;;;;;;;;;7362512;19;20014;-67
2023/09/26 04:04:47;;;;;;;7.40;4.70;;;;;;;;;;7388797;19;19998;-67
2023/09/26 04:07:12;;;;;;;8.98;4.70;;;;;;;;;;7365980;19;20010;-67
2023/09/26 04:09:37;;;;;;;8.65;4.53;;;;;;;;;;7366692;19;20003;-67
2023/09/26 04:12:04;;;;;;;9.25;5.13;;;;;;;;;;7366337;19;20018;-66
2023/09/26 04:14:30;;;;;;;8.25;4.32;;;;;;;;;;7366663;19;20010;-67
2023/09/26 04:16:56;;;;;;;9.35;4.80;;;;;;;;;;7389176;19;20427;-68
2023/09/26 04:19:21;;;;;;;7.15;4.53;;;;;;;;;;7366065;19;20085;-67
2023/09/26 04:21:46;;;;;;;8.68;4.55;;;;;;;;;;7366615;19;20010;-68
2023/09/26 04:24:12;;;;;;;7.88;4.80;;;;;;;;;;7366437;19;20780;-68
2023/09/26 04:26:37;;;;;;;7.70;5.00;;;;;;;;;;7367884;19;20016;-68
2023/09/26 04:29:05;;;;;;;9.98;5.22;;;;;;;;;;7389603;19;21373;-66
2023/09/26 04:31:30;;;;;;;7.30;4.63;;;;;;;;;;7369969;19;20927;-67
2023/09/26 04:33:56;;;;;;;8.10;4.75;;;;;;;;;;7368826;19;20014;-69
2023/09/26 04:36:21;;;;;;;7.97;5.15;;;;;;;;;;7367190;19;20447;-64
2023/09/26 04:38:47;;;;;;;9.57;5.15;;;;;;;;;;7367331;19;20029;-64
2023/09/26 04:41:13;;;;;;;11.77;5.70;;;;;;;;;;7380475;19;20019;-65
2023/09/26 04:43:39;;;;;;;8.20;4.95;;;;;;;;;;7359034;19;20796;-64
2023/09/26 04:46:15;;;;;;;8.57;5.15;;;;;;;;;;7360662;19;20006;-65
2023/09/26 04:48:41;;;;;;;8.43;5.20;;;;;;;;;;7362428;19;20480;-65
2023/09/26 04:51:14;;;;;;;8.60;5.93;;;;;;;;;;7361757;19;20066;-65
2023/09/26 04:53:40;;;;;;;9.60;5.78;;;;;;;;;;7361717;19;20456;-66
2023/09/26 04:56:07;;;;;;;8.68;5.95;;;;;;;;;;7390094;19;19999;-66
2023/09/26 04:58:32;;;;;;;8.88;5.50;;;;;;;;;;7367846;19;20027;-66
2023/09/26 05:01:00;;;;;;;9.70;5.88;;;;;;;;;;7367682;19;19999;-66
2023/09/26 05:03:26;;;;;;;10.48;5.70;;;;;;;;;;7366339;19;20548;-66
2023/09/26 05:05:52;;;;;;;9.55;5.63;;;;;;;;;;7369141;19;20031;-65
2023/09/26 05:08:17;;;;;;;7.78;5.13;;;;;;;;;;7391468;19;20485;-64
2023/09/26 05:10:42;;;;;;;11.68;5.95;;;;;;;;;;7380422;19;19995;-66
2023/09/26 05:13:08;;;;;;;9.13;5.65;;;;;;;;;;7371697;19;20516;-65
2023/09/26 05:15:35;;;;;;;9.13;5.53;;;;;;;;;;7373807;19;20034;-66
2023/09/26 05:18:01;;;;;;;8.32;5.47;;;;;;;;;;7373699;19;20469;-65
2023/09/26 05:20:26;;;;;;;9.13;5.22;;;;;;;;;;7374630;19;20013;-65
2023/09/26 05:22:52;;;;;;;10.13;4.97;;;;;;;;;;7392641;19;20003;-65
2023/09/26 05:25:18;;;;;;;8.57;5.50;;;;;;;;;;7371882;19;20689;-65
2023/09/26 05:27:43;;;;;;;9.77;5.55;;;;;;;;;;7370146;19;20012;-65
2023/09/26 05:30:11;;;;;;;8.52;5.60;;;;;;;;;;7372519;19;20822;-64
2023/09/26 05:32:36;;;;;;;12.95;5.70;;;;;;;;;;7371666;19;20014;-64
2023/09/26 05:35:04;;;;;;;10.57;5.80;;;;;;;;;;7395388;19;20003;-65
2023/09/26 05:37:30;;;;;;;9.25;5.60;;;;;;;;;;7373344;19;20011;-65
2023/09/26 05:39:55;;;;;;;9.10;5.28;;;;;;;;;;7372123;19;20163;-63
2023/09/26 05:42:21;;;;;;;8.52;5.20;;;;;;;;;;7370500;19;20012;-65
2023/09/26 05:44:46;;;;;;;12.65;7.93;;;;;;;;;;7372468;19;20134;-65
2023/09/26 05:47:11;;;;;;;31.33;17.73;;;;;;;;;;7395362;19;20577;-67
2023/09/26 05:49:36;;;;;;;12.75;7.03;;;;;;;;;;7371488;19;20513;-65
2023/09/26 05:52:02;;;;;;;7.65;5.13;;;;;;;;;;7371299;19;20366;-65
2023/09/26 05:54:30;;;;;;;9.10;5.25;;;;;;;;;;7367187;19;20002;-65
2023/09/26 05:56:55;;;;;;;9.05;5.45;;;;;;;;;;7367606;19;20820;-65
2023/09/26 05:59:20;;;;;;;10.05;5.57;;;;;;;;;;7372196;19;20010;-66
2023/09/26 06:01:46;;;;;;;10.13;5.38;;;;;;;;;;7392626;19;20018;-62
2023/09/26 06:04:11;;;;;;;11.80;6.22;;;;;;;;;;7370706;19;20014;-59
2023/09/26 06:06:36;;;;;;;10.77;6.72;;;;;;;;;;7371413;19;20515;-66
2023/09/26 06:09:02;;;;;;;10.80;6.75;;;;;;;;;;7373878;19;19998;-65
2023/09/26 06:11:27;;;;;;;12.02;6.50;;;;;;;;;;7373993;19;20006;-70
2023/09/26 06:13:53;;;;;;;12.32;6.57;;;;;;;;;;7392204;19;20006;-65
2023/09/26 06:16:22;;;;;;;9.75;6.30;;;;;;;;;;7371095;19;20025;-64
2023/09/26 06:18:47;;;;;;;10.57;6.63;;;;;;;;;;7371112;19;20026;-64
2023/09/26 06:21:14;;;;;;;11.40;6.55;;;;;;;;;;7370875;19;20010;-65
2023/09/26 06:23:40;;;;;;;11.15;6.63;;;;;;;;;;7369065;19;20021;-65
2023/09/26 06:26:06;;;;;;;10.80;6.65;;;;;;;;;;7393116;19;20786;-63
2023/09/26 06:28:32;;;;;;;9.55;6.65;;;;;;;;;;7374471;19;20002;-64
2023/09/26 06:31:04;;;;;;;9.07;6.07;;;;;;;;;;7375274;19;20031;-64
2023/09/26 06:33:29;;;;;;;9.27;5.65;;;;;;;;;;7369924;19;20074;-65
2023/09/26 06:35:55;;;;;;;16.33;5.70;;;;;;;;;;7368190;19;20010;-65
2023/09/26 06:38:20;;;;;;;9.25;5.45;;;;;;;;;;7370730;19;20453;-65
2023/09/26 06:40:45;;;;;;;10.60;5.00;;;;;;;;;;7391253;19;20026;-65
2023/09/26 06:43:11;;;;;;;10.73;4.80;;;;;;;;;;7365992;19;20010;-65
2023/09/26 06:45:38;;;;;;;8.65;4.38;;;;;;;;;;7372023;19;20006;-65
2023/09/26 06:48:05;;;;;;;12.25;4.70;;;;;;;;;;7373978;19;20810;-65
2023/09/26 06:50:30;;;;;;;10.27;4.18;;;;;;;;;;7370086;19;20622;-65
2023/09/26 06:52:55;;;;;;;9.23;4.57;;;;;;;;;;7390999;19;20005;-65
2023/09/26 06:55:21;;;;;;;10.70;4.22;;;;;;;;;;7371259;19;20010;-65
2023/09/26 06:57:46;;;;;;;7.78;4.25;;;;;;;;;;7371042;19;20074;-66
2023/09/26 07:00:16;;;;;;;7.30;4.25;;;;;;;;;;7370313;19;20013;-66
2023/09/26 07:02:42;;;;;;;13.77;3.97;;;;;;;;;;7360706;19;20651;-65
2023/09/26 07:05:08;;;;;;;11.73;4.30;;;;;;;;;;7391627;19;20032;-67
2023/09/26 07:07:34;;;;;;;7.38;4.15;;;;;;;;;;7368911;19;20026;-65
2023/09/26 07:10:00;;;;;;;8.55;4.05;;;;;;;;;;7367056;19;20007;-65
2023/09/26 07:12:26;;;;;;;8.02;4.05;;;;;;;;;;7365740;19;20042;-65
2023/09/26 07:14:52;;;;;;;7.28;4.00;;;;;;;;;;7368678;19;20476;-69
2023/09/26 07:17:17;;;;;;;9.43;3.75;;;;;;;;;;7385776;19;20003;-67
2023/09/26 07:19:42;;;;;;;7.28;3.75;;;;;;;;;;7377015;19;20712;-64
2023/09/26 07:22:08;;;;;;;6.55;3.65;;;;;;;;;;7367242;19;20014;-65
2023/09/26 07:24:33;;;;;;;9.73;3.60;;;;;;;;;;7368888;19;20351;-67
2023/09/26 07:26:59;;;;;;;6.97;3.60;;;;;;;;;;7368784;19;20014;-64
2023/09/26 07:29:25;;;;;;;9.57;3.50;;;;;;;;;;7367173;19;20026;-65
2023/09/26 07:31:51;;;;;;;8.00;4.57;;;;;;;;;;7389628;19;20034;-64
2023/09/26 07:34:17;;;;;;;8.82;4.95;;;;;;;;;;7367706;19;20030;-66
2023/09/26 07:36:42;;;;;;;14.52;9.25;;;;;;;;;;7368441;19;20006;-65
2023/09/26 07:39:08;;;;;;;7.20;3.90;;;;;;;;;;7368955;19;20032;-65
2023/09/26 07:41:33;;;;;;;8.23;3.75;;;;;;;;;;7368454;19;20683;-65
2023/09/26 07:43:58;;;;;;;9.25;4.50;;;;;;;;;;7390258;19;19999;-66
2023/09/26 07:46:24;;;;;;;6.88;4.10;;;;;;;;;;7367201;19;20017;-66
2023/09/26 07:48:49;;;;;;;8.27;4.60;;;;;;;;;;7368004;19;20009;-66
2023/09/26 07:51:16;;;;;;;6.03;4.40;;;;;;;;;;7364790;19;20155;-65
2023/09/26 07:53:42;;;;;;;9.32;4.70;;;;;;;;;;7366071;19;20014;-67
2023/09/26 07:56:07;;;;;;;9.32;4.53;;;;;;;;;;7389513;19;19999;-65
2023/09/26 07:58:33;;;;;;;8.95;4.80;;;;;;;;;;7366565;19;20026;-66
2023/09/26 08:01:00;;;;;;;7.47;4.82;;;;;;;;;;7367377;19;20415;-65
2023/09/26 08:03:26;;;;;;;8.77;4.38;;;;;;;;;;7366762;19;20043;-64
2023/09/26 08:06:01;;;;;;;8.07;4.40;;;;;;;;;;7373756;19;20006;-66
2023/09/26 08:08:28;;;;;;;6.80;3.78;;;;;;;;;;7371056;19;20010;-65
2023/09/26 08:10:54;;;;;;;6.57;3.78;;;;;;;;;;7388298;19;20010;-65
2023/09/26 08:13:19;;;;;;;6.82;3.78;;;;;;;;;;7365341;19;20017;-64
2023/09/26 08:15:46;;;;;;;6.80;3.60;;;;;;;;;;7366978;19;20038;-66
2023/09/26 08:18:11;;;;;;;6.93;3.42;;;;;;;;;;7367636;19;20038;-66
2023/09/26 08:20:37;;;;;;;7.05;3.45;;;;;;;;;;7367473;19;20839;-65
2023/09/26 08:23:02;;;;;;;5.82;3.72;;;;;;;;;;7387429;19;20035;-66
2023/09/26 08:25:28;;;;;;;7.20;4.00;;;;;;;;;;7367271;19;20037;-64
2023/09/26 08:27:53;;;;;;;5.90;3.42;;;;;;;;;;7369613;19;20365;-65
2023/09/26 08:30:19;;;;;;;7.07;4.15;;;;;;;;;;7368665;19;20014;-66
2023/09/26 08:32:44;;;;;;;6.97;4.10;;;;;;;;;;7365934;19;20006;-65
2023/09/26 08:35:10;;;;;;;7.35;3.72;;;;;;;;;;7390100;19;20019;-64
2023/09/26 08:37:37;;;;;;;6.25;3.78;;;;;;;;;;7365268;19;20385;-67
2023/09/26 08:40:09;;;;;;;6.47;4.05;;;;;;;;;;7364252;19;20007;-67
2023/09/26 08:42:37;;;;;;;7.00;4.15;;;;;;;;;;7365401;19;20038;-68
2023/09/26 08:45:05;;;;;;;7.75;4.30;;;;;;;;;;7368182;19;20007;-68
2023/09/26 08:47:31;;;;;;;8.35;3.78;;;;;;;;;;7365846;19;20017;-67
2023/09/26 08:49:57;;;;;;;6.18;3.97;;;;;;;;;;7389399;19;20455;-67
2023/09/26 08:52:23;;;;;;;8.05;4.60;;;;;;;;;;7363517;19;20047;-68
2023/09/26 08:54:49;;;;;;;5.97;4.00;;;;;;;;;;7373297;19;20015;-67
2023/09/26 08:57:16;;;;;;;8.50;4.22;;;;;;;;;;7372884;19;20035;-69
2023/09/26 08:59:45;;;;;;;5.72;3.83;;;;;;;;;;7370982;19;20011;-68
2023/09/26 09:02:11;;;;;;;7.85;4.20;;;;;;;;;;7388180;19;19999;-70
2023/09/26 09:04:43;;;;;;;8.00;4.30;;;;;;;;;;7366602;19;20464;-69
2023/09/26 09:07:10;;;;;;;9.38;4.95;;;;;;;;;;7364727;19;20007;-70
2023/09/26 09:09:36;;;;;;;7.80;4.45;;;;;;;;;;7367321;19;20419;-70
2023/09/26 09:12:02;;;;;;;7.32;4.10;;;;;;;;;;7364248;19;20449;-68
2023/09/26 09:14:35;;;;;;;7.07;4.25;;;;;;;;;;7364386;19;20011;-68
2023/09/26 09:17:01;;;;;;;6.65;3.97;;;;;;;;;;7385914;19;20007;-70
2023/09/26 09:19:50;;;;;;;8.15;3.65;;;;;;;;;;7364653;19;20035;-68
2023/09/26 09:22:15;;;;;;;10.13;3.90;;;;;;;;;;7364329;19;20022;-69
2023/09/26 09:24:41;;;;;;;7.07;4.05;;;;;;;;;;7369009;19;20006;-68
2023/09/26 09:27:06;;;;;;;7.05;4.00;;;;;;;;;;7367264;19;20010;-69
2023/09/26 09:29:31;;;;;;;5.72;3.30;;;;;;;;;;7362918;19;20003;-69
2023/09/26 09:31:57;;;;;;;8.07;3.85;;;;;;;;;;7385702;19;20519;-69
2023/09/26 09:34:25;;;;;;;9.75;4.45;;;;;;;;;;7362533;19;20005;-67
2023/09/26 09:36:51;;;;;;;6.50;3.70;;;;;;;;;;7365315;19;20067;-68
2023/09/26 09:39:19;;;;;;;6.30;3.58;;;;;;;;;;7367823;19;20073;-68
2023/09/26 09:41:47;;;;;;;5.43;3.30;;;;;;;;;;7368050;19;20011;-68
2023/09/26 09:44:12;;;;;;;5.10;3.50;;;;;;;;;;7398458;19;19999;-68
2023/09/26 09:46:38;;;;;;;6.60;3.67;;;;;;;;;;7371028;19;20102;-69
2023/09/26 09:49:09;;;;;;;7.05;3.80;;;;;;;;;;7363314;19;20469;-68
2023/09/26 09:51:35;;;;;;;10.50;3.72;;;;;;;;;;7365837;19;20002;-70
2023/09/26 09:54:00;;;;;;;6.18;3.90;;;;;;;;;;7370741;19;20010;-69
2023/09/26 09:56:33;;;;;;;7.18;4.03;;;;;;;;;;7372736;19;20003;-69
2023/09/26 09:59:05;;;;;;;6.72;3.97;;;;;;;;;;7396053;19;20058;-70
2023/09/26 10:01:33;;;;;;;6.00;3.40;;;;;;;;;;7371020;19;20388;-70
2023/09/26 10:03:59;;;;;;;6.22;3.60;;;;;;;;;;7370857;19;20006;-69
2023/09/26 10:06:24;;;;;;;7.25;5.40;;;;;;;;;;7371083;19;20013;-69
2023/09/26 10:08:50;;;;;;;7.55;4.03;;;;;;;;;;7372480;19;20002;-69
2023/09/26 10:11:18;;;;;;;7.43;3.92;;;;;;;;;;7391285;19;20002;-70
2023/09/26 10:13:45;;;;;;;5.30;3.63;;;;;;;;;;7365399;19;20014;-69
2023/09/26 10:16:14;;;;;;;7.50;3.70;;;;;;;;;;7371180;19;20409;-69
2023/09/26 10:18:41;;;;;;;5.68;3.80;;;;;;;;;;7369756;19;20010;-67
2023/09/26 10:21:22;;;;;;;5.93;3.65;;;;;;;;;;7371682;19;20107;-68
2023/09/26 10:24:21;;;;;;;6.60;3.72;;;;;;;;;;7367481;19;20038;-67
2023/09/26 10:26:48;;;;;;;7.25;3.72;;;;;;;;;;7371251;19;20006;-68
2023/09/26 10:29:19;;;;;;;6.88;3.75;;;;;;;;;;7391532;19;20412;-67
2023/09/26 10:31:59;;;;;;;6.72;3.55;;;;;;;;;;7370770;19;20341;-68
2023/09/26 10:34:29;;;;;;;6.25;3.65;;;;;;;;;;7370764;19;20306;-68
2023/09/26 10:36:55;;;;;;;;;;;;;;;;;;7370501;19;20117;-67
2023/09/26 10:39:41;;;;;;;7.35;4.05;;;;;;;;;;7370432;19;20356;-67
2023/09/26 10:42:12;;;;;;;5.03;3.40;;;;;;;;;;7369247;19;20014;-68
2023/09/26 10:44:39;;;;;;;5.47;3.20;;;;;;;;;;7371252;19;20015;-68
2023/09/26 10:47:05;;;;;;;5.47;3.50;;;;;;;;;;7391267;19;20007;-68
2023/09/26 10:49:33;;;;;;;4.53;3.20;;;;;;;;;;7367991;19;20029;-69
2023/09/26 10:52:02;;;;;;;5.32;3.38;;;;;;;;;;7367564;19;20034;-69
2023/09/26 10:54:29;;;;;;;6.85;3.78;;;;;;;;;;7370235;19;20498;-68
2023/09/26 10:56:57;;;;;;;5.97;3.85;;;;;;;;;;7367425;19;20011;-68
2023/09/26 10:59:22;;;;;;;5.47;3.40;;;;;;;;;;7364544;19;20568;-69
2023/09/26 11:01:49;;;;;;;5.32;3.50;;;;;;;;;;7387324;19;20005;-68
2023/09/26 11:04:14;;;;;;;7.88;4.28;;;;;;;;;;7365843;19;20002;-68
2023/09/26 11:06:41;;;;;;;5.13;3.20;;;;;;;;;;7369470;19;20053;-68
2023/09/26 11:09:07;;;;;;;6.13;3.63;;;;;;;;;;7370411;19;20021;-68
2023/09/26 11:11:32;;;;;;;5.78;3.40;;;;;;;;;;7367882;19;20401;-68
2023/09/26 11:13:58;;;;;;;6.60;3.75;;;;;;;;;;7391102;19;20018;-68
2023/09/26 11:16:23;;;;;;;6.50;3.30;;;;;;;;;;7368788;19;20014;-67
2023/09/26 11:18:55;;;;;;;5.35;3.13;;;;;;;;;;7369294;19;20227;-68
2023/09/26 11:21:20;;;;;;;5.97;2.90;;;;;;;;;;7373394;19;20496;-71
2023/09/26 11:23:46;;;;;;;6.07;3.10;;;;;;;;;;7367990;19;20054;-67
2023/09/26 11:26:11;;;;;;;4.78;3.00;;;;;;;;;;7391865;19;20013;-69
2023/09/26 11:28:38;;;;;;;4.13;2.80;;;;;;;;;;7368872;19;20461;-69
2023/09/26 11:31:04;;;;;;;5.20;3.40;;;;;;;;;;7368738;19;20384;-68
2023/09/26 11:33:30;;;;;;;5.30;3.10;;;;;;;;;;7367401;19;20007;-69
2023/09/26 11:35:55;;;;;;;7.43;2.90;;;;;;;;;;7369310;19;20449;-68
2023/09/26 11:38:21;;;;;;;5.40;2.75;;;;;;;;;;7366438;19;20014;-68
2023/09/26 11:40:46;;;;;;;5.07;3.03;;;;;;;;;;7389190;19;20007;-68
2023/09/26 11:43:11;;;;;;;6.57;3.10;;;;;;;;;;7366234;19;20294;-69
2023/09/26 11:45:39;;;;;;;5.45;3.15;;;;;;;;;;7369582;19;20327;-68
2023/09/26 11:48:05;;;;;;;5.50;2.88;;;;;;;;;;7367956;19;20028;-68
2023/09/26 11:50:31;;;;;;;4.40;2.50;;;;;;;;;;7365902;19;20013;-69
2023/09/26 11:53:03;;;;;;;4.03;2.40;;;;;;;;;;7388630;19;20354;-68
2023/09/26 11:55:31;;;;;;;3.67;2.22;;;;;;;;;;7371011;19;20022;-68
2023/09/26 11:57:58;;;;;;;4.05;2.50;;;;;;;;;;7369640;19;20013;-69
2023/09/26 12:00:24;;;;;;;6.60;2.80;;;;;;;;;;7368357;19;20015;-69
2023/09/26 12:02:50;;;;;;;4.28;2.75;;;;;;;;;;7366199;19;20038;-69
2023/09/26 12:05:20;;;;;;;4.25;2.90;;;;;;;;;;7389412;19;20066;-69
2023/09/26 12:07:45;;;;;;;4.72;2.70;;;;;;;;;;7368312;19;20013;-69
2023/09/26 12:10:11;;;;;;;5.85;2.75;;;;;;;;;;7367233;19;20003;-68
2023/09/26 12:12:37;;;;;;;4.65;2.67;;;;;;;;;;7366345;19;20507;-68
2023/09/26 12:15:22;;;;;;;4.82;2.60;;;;;;;;;;7367207;19;20006;-73
2023/09/26 12:17:54;;;;;;;6.03;3.00;;;;;;;;;;7367350;19;20185;-68
2023/09/26 12:20:21;;;;;;;5.43;2.90;;;;;;;;;;7367829;19;20005;-68
2023/09/26 12:22:48;;;;;;;6.43;2.70;;;;;;;;;;7386843;19;21414;-70
2023/09/26 12:25:13;;;;;;;4.05;2.60;;;;;;;;;;7367379;19;20003;-68
2023/09/26 12:27:39;;;;;;;5.57;3.03;;;;;;;;;;7367657;19;20019;-68
2023/09/26 12:30:05;;;;;;;4.80;2.20;;;;;;;;;;7366573;19;20035;-69
2023/09/26 12:32:30;;;;;;;4.07;2.60;;;;;;;;;;7365799;19;20082;-69
2023/09/26 12:34:56;;;;;;;5.13;2.42;;;;;;;;;;7388676;19;20006;-68
2023/09/26 12:37:21;;;;;;;4.50;2.70;;;;;;;;;;7366799;19;20040;-68
2023/09/26 12:39:46;;;;;;;4.53;2.20;;;;;;;;;;7365433;19;20437;-69
2023/09/26 12:42:12;;;;;;;3.43;2.10;;;;;;;;;;7365004;19;20003;-68
2023/09/26 12:44:40;;;;;;;4.25;2.20;;;;;;;;;;7366337;19;20193;-68
2023/09/26 12:47:06;;;;;;;5.78;2.55;;;;;;;;;;7388501;19;20010;-68
2023/09/26 12:49:31;;;;;;;3.67;2.50;;;;;;;;;;7365264;19;20555;-70
2023/09/26 12:51:57;;;;;;;4.88;2.50;;;;;;;;;;7365159;19;20401;-68
2023/09/26 12:54:23;;;;;;;4.15;2.10;;;;;;;;;;7365875;19;20070;-69
2023/09/26 12:56:49;;;;;;;2.92;2.10;;;;;;;;;;7365822;19;20501;-69
2023/09/26 12:59:14;;;;;;;3.22;2.40;;;;;;;;;;7392047;19;19994;-68
2023/09/26 13:01:39;;;;;;;6.15;2.22;;;;;;;;;;7369981;19;20015;-69
2023/09/26 13:04:05;;;;;;;4.55;2.35;;;;;;;;;;7368682;19;20007;-68
2023/09/26 13:06:30;;;;;;;3.80;2.40;;;;;;;;;;7366559;19;20002;-70
2023/09/26 13:08:56;;;;;;;4.05;2.30;;;;;;;;;;7364178;19;20031;-70
2023/09/26 13:11:21;;;;;;;5.35;2.38;;;;;;;;;;7358715;19;19998;-70
2023/09/26 13:13:46;;;;;;;3.70;2.40;;;;;;;;;;7382804;19;20002;-67
2023/09/26 13:16:13;;;;;;;4.78;2.30;;;;;;;;;;7365344;19;19998;-68
2023/09/26 13:18:38;;;;;;;5.03;2.53;;;;;;;;;;7363054;19;19999;-67
2023/09/26 13:21:04;;;;;;;4.63;2.38;;;;;;;;;;7364196;19;20432;-68
2023/09/26 13:23:29;;;;;;;5.07;2.25;;;;;;;;;;7364848;19;20509;-69
2023/09/26 13:25:54;;;;;;;4.95;2.63;;;;;;;;;;7386521;19;20013;-68
2023/09/26 13:28:20;;;;;;;4.93;2.42;;;;;;;;;;7371132;19;20023;-68
2023/09/26 13:30:45;;;;;;;4.32;2.53;;;;;;;;;;7372967;19;20003;-68
2023/09/26 13:33:11;;;;;;;6.28;2.50;;;;;;;;;;7369109;19;20015;-69
2023/09/26 13:35:36;;;;;;;3.80;2.30;;;;;;;;;;7371881;19;19994;-69
2023/09/26 13:38:02;;;;;;;6.32;2.63;;;;;;;;;;7395421;19;20007;-68
2023/09/26 13:40:27;;;;;;;4.72;2.40;;;;;;;;;;7372941;19;20101;-69
2023/09/26 13:42:52;;;;;;;4.75;2.22;;;;;;;;;;7369691;19;20003;-70
2023/09/26 13:45:18;;;;;;;3.60;2.20;;;;;;;;;;7373058;19;20040;-69
2023/09/26 13:47:43;;;;;;;5.50;2.38;;;;;;;;;;7373553;19;20006;-69
2023/09/26 13:50:09;;;;;;;3.30;2.00;;;;;;;;;;7393202;19;20383;-69
2023/09/26 13:52:34;;;;;;;3.35;2.00;;;;;;;;;;7369814;19;20080;-68
2023/09/26 13:55:00;;;;;;;3.53;2.30;;;;;;;;;;7371882;19;20003;-70
2023/09/26 13:57:25;;;;;;;4.10;2.00;;;;;;;;;;7371421;19;20011;-72
2023/09/26 13:59:51;;;;;;;3.13;2.03;;;;;;;;;;7372871;19;20007;-69
2023/09/26 14:02:18;;;;;;;2.78;1.92;;;;;;;;;;7393169;19;20002;-68
2023/09/26 14:04:44;;;;;;;2.38;1.75;;;;;;;;;;7367743;19;20007;-70
2023/09/26 14:07:20;;;;;;;3.22;2.08;;;;;;;;;;7373145;19;20505;-69
2023/09/26 14:09:45;;;;;;;3.45;2.03;;;;;;;;;;7373064;19;20089;-68
2023/09/26 14:12:11;;;;;;;4.65;2.03;;;;;;;;;;7370702;19;20027;-69
2023/09/26 14:14:36;;;;;;;3.45;2.08;;;;;;;;;;7372848;19;20011;-71
2023/09/26 14:17:02;;;;;;;3.97;2.15;;;;;;;;;;7394803;19;20006;-69
2023/09/26 14:19:27;;;;;;;4.30;2.05;;;;;;;;;;7371272;19;20030;-68
2023/09/26 14:21:52;;;;;;;3.67;2.30;;;;;;;;;;7372219;19;20040;-69
2023/09/26 14:24:18;;;;;;;4.40;2.50;;;;;;;;;;7369564;19;20626;-69
2023/09/26 14:26:43;;;;;;;5.53;2.63;;;;;;;;;;7371318;19;20095;-68
2023/09/26 14:29:09;;;;;;;3.55;2.20;;;;;;;;;;7394637;19;20070;-68
2023/09/26 14:31:34;;;;;;;3.92;1.98;;;;;;;;;;7371726;19;20010;-68
2023/09/26 14:34:00;;;;;;;3.95;1.98;;;;;;;;;;7370462;19;20023;-69
2023/09/26 14:36:25;;;;;;;2.90;2.05;;;;;;;;;;7370676;19;20011;-70
2023/09/26 14:38:50;;;;;;;4.57;2.25;;;;;;;;;;7371648;19;20011;-68